createdAt,value
2023-04-06T00:00:54.877Z,47.70
2023-04-06T00:03:29.938Z,47.67
2023-04-06T00:05:57.268Z,47.86
2023-04-06T00:08:36.192Z,47.82
2023-04-06T00:11:03.313Z,47.89
2023-04-06T00:13:42.274Z,48.00
2023-04-06T00:16:10.685Z,47.94
2023-04-06T00:18:42.787Z,48.02
2023-04-06T00:21:10.167Z,48.16
2023-04-06T00:23:37.834Z,48.26
2023-04-06T00:26:05.395Z,48.31
2023-04-06T00:28:43.421Z,48.27
2023-04-06T00:31:25.032Z,48.29
2023-04-06T00:33:57.053Z,48.38
2023-04-06T00:36:28.241Z,48.40
2023-04-06T00:38:58.316Z,48.52
2023-04-06T00:41:29.259Z,48.54
2023-04-06T00:44:03.845Z,48.55
2023-04-06T00:46:32.598Z,48.76
2023-04-06T00:49:00.254Z,48.64
2023-04-06T00:51:27.898Z,48.70
2023-04-06T00:53:57.808Z,48.70
2023-04-06T00:56:28.263Z,48.75
2023-04-06T00:58:58.762Z,48.86
2023-04-06T01:01:26.984Z,48.80
2023-04-06T01:03:56.546Z,48.81
2023-04-06T01:06:25.232Z,48.69
2023-04-06T01:09:02.318Z,48.65
2023-04-06T01:11:30.098Z,48.71
2023-04-06T01:14:00.919Z,48.51
2023-04-06T01:16:34.830Z,48.55
2023-04-06T01:19:25.841Z,48.66
2023-04-06T01:21:54.940Z,48.54
2023-04-06T01:24:31.980Z,48.61
2023-04-06T01:27:02.873Z,48.64
2023-04-06T01:29:50.245Z,48.59
2023-04-06T01:32:26.330Z,48.59
2023-04-06T01:34:57.278Z,48.82
2023-04-06T01:37:24.738Z,48.78
2023-04-06T01:39:54.547Z,48.86
2023-04-06T01:42:29.828Z,48.99
2023-04-06T01:44:57.863Z,48.98
2023-04-06T01:47:36.282Z,49.05
2023-04-06T01:50:07.366Z,48.83
2023-04-06T01:52:38.161Z,48.84
2023-04-06T01:55:10.111Z,49.08
2023-04-06T01:57:57.641Z,49.21
2023-04-06T02:00:45.500Z,49.21
2023-04-06T02:03:16.785Z,49.36
2023-04-06T02:05:47.559Z,49.50
2023-04-06T02:08:36.015Z,49.65
2023-04-06T02:11:06.264Z,49.80
2023-04-06T02:14:02.875Z,49.88
2023-04-06T02:16:32.872Z,50.01
2023-04-06T02:19:00.145Z,49.99
2023-04-06T02:21:27.398Z,50.19
2023-04-06T02:23:55.221Z,50.29
2023-04-06T02:26:22.722Z,50.43
2023-04-06T02:28:58.987Z,50.73
2023-04-06T02:31:46.513Z,50.72
2023-04-06T02:34:24.211Z,50.77
2023-04-06T02:36:56.127Z,51.06
2023-04-06T02:39:31.216Z,51.10
2023-04-06T02:41:59.327Z,51.29
2023-04-06T02:44:30.949Z,51.45
2023-04-06T02:47:09.554Z,51.61
2023-04-06T02:49:37.958Z,51.79
2023-04-06T02:52:05.596Z,51.96
2023-04-06T02:54:53.638Z,52.04
2023-04-06T02:57:41.076Z,52.24
2023-04-06T03:00:13.940Z,52.48
2023-04-06T03:02:53.114Z,52.41
2023-04-06T03:05:20.957Z,52.60
2023-04-06T03:07:48.404Z,52.75
2023-04-06T03:10:36.442Z,52.98
2023-04-06T03:13:03.802Z,53.04
2023-04-06T03:15:57.565Z,53.55
2023-04-06T03:18:36.406Z,53.53
2023-04-06T03:21:24.034Z,53.55
2023-04-06T03:23:52.735Z,53.77
2023-04-06T03:26:23.960Z,53.81
2023-04-06T03:28:58.885Z,54.08
2023-04-06T03:31:38.349Z,54.26
2023-04-06T03:34:13.669Z,54.44
2023-04-06T03:36:44.204Z,54.61
2023-04-06T03:39:11.550Z,54.72
2023-04-06T03:41:40.241Z,54.88
2023-04-06T03:44:43.328Z,54.91
2023-04-06T03:47:14.479Z,55.00
2023-04-06T03:49:44.717Z,55.14
2023-04-06T03:52:12.925Z,55.38
2023-04-06T03:54:40.224Z,55.47
2023-04-06T03:57:07.825Z,55.67
2023-04-06T03:59:40.710Z,55.71
2023-04-06T04:02:17.585Z,55.80
2023-04-06T04:04:45.892Z,56.14
2023-04-06T04:07:13.178Z,56.21
2023-04-06T04:10:00.909Z,56.37
2023-04-06T04:12:32.195Z,56.44
2023-04-06T04:15:19.997Z,56.75
2023-04-06T04:17:50.562Z,56.83
2023-04-06T04:20:21.362Z,57.00
2023-04-06T04:22:51.991Z,57.21
2023-04-06T04:25:19.867Z,57.29
2023-04-06T04:27:49.775Z,57.31
2023-04-06T04:30:25.536Z,57.50
2023-04-06T04:33:13.163Z,57.47
2023-04-06T04:36:00.498Z,57.63
2023-04-06T04:38:32.963Z,57.50
2023-04-06T04:41:20.799Z,57.50
2023-04-06T04:43:48.722Z,57.68
2023-04-06T04:46:20.756Z,57.70
2023-04-06T04:48:48.300Z,57.87
2023-04-06T04:51:35.720Z,57.71
2023-04-06T04:54:25.706Z,57.71
2023-04-06T04:56:53.544Z,57.75
2023-04-06T04:59:41.075Z,57.74
2023-04-06T05:02:15.474Z,57.68
2023-04-06T05:04:57.660Z,57.88
2023-04-06T05:07:29.385Z,57.92
2023-04-06T05:09:59.494Z,58.07
2023-04-06T05:12:28.804Z,58.01
2023-04-06T05:15:07.286Z,57.87
2023-04-06T05:17:34.632Z,58.02
2023-04-06T05:20:02.044Z,58.01
2023-04-06T05:22:30.352Z,57.95
2023-04-06T05:25:09.515Z,57.99
2023-04-06T05:27:40.386Z,57.89
2023-04-06T05:30:14.491Z,57.95
2023-04-06T05:32:45.624Z,57.78
2023-04-06T05:35:13.825Z,57.61
2023-04-06T05:37:41.861Z,57.57
2023-04-06T05:40:11.901Z,57.50
2023-04-06T05:42:42.205Z,57.32
2023-04-06T05:45:17.868Z,57.10
2023-04-06T05:47:47.120Z,56.90
2023-04-06T05:50:21.809Z,56.73
2023-04-06T05:52:49.050Z,56.64
2023-04-06T05:55:18.419Z,56.16
2023-04-06T05:57:48.705Z,55.41
2023-04-06T06:00:18.728Z,55.02
2023-04-06T06:02:51.554Z,54.73
2023-04-06T06:05:21.240Z,54.37
2023-04-06T06:07:55.025Z,53.91
2023-04-06T06:10:22.235Z,53.26
2023-04-06T06:12:50.724Z,52.53
2023-04-06T06:15:19.202Z,51.79
2023-04-06T06:17:47.830Z,50.38
2023-04-06T06:20:16.573Z,50.12
2023-04-06T06:22:44.247Z,49.32
2023-04-06T06:25:17.034Z,48.50
2023-04-06T06:27:46.523Z,48.11
2023-04-06T06:30:16.584Z,47.89
2023-04-06T06:32:44.219Z,47.41
2023-04-06T06:35:12.707Z,46.70
2023-04-06T06:37:42.909Z,46.50
2023-04-06T06:40:17.203Z,46.06
2023-04-06T06:42:45.220Z,45.65
2023-04-06T06:45:33.635Z,45.51
2023-04-06T06:48:01.078Z,45.10
2023-04-06T06:50:30.819Z,44.78
2023-04-06T06:52:58.437Z,44.60
2023-04-06T06:55:26.627Z,44.61
2023-04-06T06:57:53.802Z,44.50
2023-04-06T07:00:23.078Z,44.55
2023-04-06T07:02:51.380Z,44.54
2023-04-06T07:05:27.391Z,45.04
2023-04-06T07:08:00.135Z,45.17
2023-04-06T07:10:28.194Z,45.34
2023-04-06T07:12:55.564Z,45.63
2023-04-06T07:15:27.516Z,45.30
2023-04-06T07:17:55.891Z,45.23
2023-04-06T07:20:25.977Z,45.00
2023-04-06T07:22:53.980Z,45.02
2023-04-06T07:25:30.076Z,44.75
2023-04-06T07:28:00.866Z,44.34
2023-04-06T07:30:30.704Z,43.94
2023-04-06T07:33:02.883Z,43.82
2023-04-06T07:35:31.877Z,43.82
2023-04-06T07:37:59.717Z,44.00
2023-04-06T07:40:28.461Z,44.05
2023-04-06T07:42:57.572Z,43.35
2023-04-06T07:45:26.206Z,43.92
2023-04-06T07:47:54.425Z,44.41
2023-04-06T07:50:22.436Z,44.85
2023-04-06T07:52:49.892Z,45.21
2023-04-06T07:55:20.933Z,45.40
2023-04-06T07:57:50.343Z,44.81
2023-04-06T08:00:19.250Z,44.94
2023-04-06T08:02:51.350Z,45.30
2023-04-06T08:05:19.056Z,45.49
2023-04-06T08:07:48.770Z,46.06
2023-04-06T08:10:27.318Z,46.41
2023-04-06T08:12:54.846Z,46.49
2023-04-06T08:15:22.540Z,46.52
2023-04-06T08:17:50.057Z,46.49
2023-04-06T08:20:24.991Z,46.94
2023-04-06T08:22:55.019Z,47.08
2023-04-06T08:25:22.207Z,47.17
2023-04-06T08:27:52.399Z,47.05
2023-04-06T08:30:30.287Z,47.35
2023-04-06T08:32:57.521Z,47.57
2023-04-06T08:35:24.924Z,47.77
2023-04-06T08:37:52.404Z,47.64
2023-04-06T08:40:41.517Z,48.12
2023-04-06T08:43:12.641Z,48.19
2023-04-06T08:45:45.441Z,48.56
2023-04-06T08:48:14.176Z,48.79
2023-04-06T08:50:45.679Z,48.82
2023-04-06T08:53:33.518Z,49.68
2023-04-06T08:56:11.832Z,50.02
2023-04-06T08:58:54.582Z,50.61
2023-04-06T09:01:38.641Z,50.97
2023-04-06T09:04:13.041Z,51.33
2023-04-06T09:06:41.968Z,51.78
2023-04-06T09:09:09.781Z,52.11
2023-04-06T09:11:48.808Z,52.37
2023-04-06T09:14:16.565Z,52.66
2023-04-06T09:16:46.306Z,52.87
2023-04-06T09:19:17.049Z,53.01
2023-04-06T09:21:44.683Z,53.34
2023-04-06T09:24:43.986Z,53.73
2023-04-06T09:27:13.792Z,53.73
2023-04-06T09:29:46.698Z,54.20
2023-04-06T09:32:21.860Z,54.80
2023-04-06T09:35:13.434Z,55.14
2023-04-06T09:37:44.551Z,55.00
2023-04-06T09:40:14.636Z,55.46
2023-04-06T09:42:42.817Z,55.98
2023-04-06T09:45:11.968Z,56.11
2023-04-06T09:47:41.639Z,56.06
2023-04-06T09:50:12.763Z,56.29
2023-04-06T09:52:43.686Z,56.69
2023-04-06T09:55:17.295Z,57.05
2023-04-06T09:57:53.479Z,57.23
2023-04-06T10:00:34.686Z,57.95
2023-04-06T10:03:16.921Z,57.75
2023-04-06T10:05:53.783Z,58.63
2023-04-06T10:08:26.619Z,58.86
2023-04-06T10:10:54.606Z,58.96
2023-04-06T10:13:23.016Z,59.62
2023-04-06T10:15:55.356Z,59.64
2023-04-06T10:18:26.843Z,60.21
2023-04-06T10:21:19.757Z,60.60
2023-04-06T10:23:51.389Z,60.76
2023-04-06T10:26:22.045Z,61.20
2023-04-06T10:28:50.873Z,60.56
2023-04-06T10:31:30.825Z,61.31
2023-04-06T10:34:02.803Z,61.72
2023-04-06T10:36:43.164Z,62.13
2023-04-06T10:39:29.242Z,62.04
2023-04-06T10:41:56.705Z,62.50
2023-04-06T10:44:26.728Z,62.57
2023-04-06T10:47:01.607Z,63.09
2023-04-06T10:49:30.023Z,62.96
2023-04-06T10:51:58.578Z,63.37
2023-04-06T10:54:29.143Z,63.53
2023-04-06T10:56:57.304Z,63.83
2023-04-06T10:59:48.230Z,63.91
2023-04-06T11:02:24.405Z,64.01
2023-04-06T11:05:00.344Z,64.01
2023-04-06T11:07:31.448Z,64.61
2023-04-06T11:10:13.888Z,64.79
2023-04-06T11:12:45.672Z,64.76
2023-04-06T11:15:14.168Z,65.09
2023-04-06T11:17:42.077Z,65.19
2023-04-06T11:20:19.030Z,65.43
2023-04-06T11:22:56.129Z,65.38
2023-04-06T11:25:23.928Z,65.99
2023-04-06T11:27:51.697Z,65.95
2023-04-06T11:30:19.597Z,65.91
2023-04-06T11:32:50.125Z,65.95
2023-04-06T11:35:23.886Z,65.80
2023-04-06T11:37:52.586Z,66.43
2023-04-06T11:40:25.781Z,65.96
2023-04-06T11:43:16.707Z,66.33
2023-04-06T11:45:47.624Z,66.35
2023-04-06T11:48:25.447Z,66.55
2023-04-06T11:51:01.924Z,66.27
2023-04-06T11:53:33.749Z,66.50
2023-04-06T11:56:01.196Z,66.65
2023-04-06T11:58:31.998Z,66.67
2023-04-06T12:03:49.105Z,67.10
2023-04-06T12:06:17.870Z,67.11
2023-04-06T12:08:45.840Z,67.30
2023-04-06T12:11:16.274Z,67.00
2023-04-06T12:13:46.531Z,67.18
2023-04-06T12:16:13.882Z,67.46
2023-04-06T12:18:41.535Z,67.32
2023-04-06T12:21:18.900Z,67.16
2023-04-06T12:23:46.660Z,66.83
2023-04-06T12:26:14.116Z,67.19
2023-04-06T12:28:41.714Z,66.70
2023-04-06T12:31:09.379Z,66.63
2023-04-06T12:33:36.591Z,66.71
2023-04-06T12:36:03.960Z,66.89
2023-04-06T12:38:31.914Z,67.16
2023-04-06T12:40:59.280Z,67.20
2023-04-06T12:43:37.071Z,67.21
2023-04-06T12:46:04.428Z,67.27
2023-04-06T12:48:31.673Z,67.51
2023-04-06T12:51:04.670Z,67.47
2023-04-06T12:53:32.282Z,67.56
2023-04-06T12:55:59.961Z,67.71
2023-04-06T12:58:29.605Z,67.42
2023-04-06T13:00:57.551Z,67.94
2023-04-06T13:03:25.056Z,67.54
2023-04-06T13:05:53.655Z,67.96
2023-04-06T13:08:22.194Z,68.37
2023-04-06T13:10:50.884Z,68.47
2023-04-06T13:13:28.838Z,68.15
2023-04-06T13:16:16.859Z,68.29
2023-04-06T13:18:47.405Z,68.41
2023-04-06T13:21:18.314Z,68.50
2023-04-06T13:23:48.245Z,68.30
2023-04-06T13:26:16.499Z,68.39
2023-04-06T13:28:44.496Z,68.52
2023-04-06T13:31:32.854Z,68.64
2023-04-06T13:34:02.511Z,68.67
2023-04-06T13:36:31.018Z,69.60
2023-04-06T13:38:58.365Z,69.01
2023-04-06T13:41:27.560Z,69.03
2023-04-06T13:44:15.491Z,69.23
2023-04-06T13:46:45.815Z,70.03
2023-04-06T13:49:12.880Z,69.72
2023-04-06T13:51:40.593Z,69.50
2023-04-06T13:54:08.620Z,69.98
2023-04-06T13:56:35.793Z,70.18
2023-04-06T13:59:03.254Z,70.43
2023-04-06T14:01:30.996Z,70.13
2023-04-06T14:04:18.800Z,71.08
2023-04-06T14:06:48.663Z,71.22
2023-04-06T14:09:15.967Z,71.21
2023-04-06T14:11:43.222Z,71.03
2023-04-06T14:14:10.880Z,71.10
2023-04-06T14:16:38.386Z,71.44
2023-04-06T14:19:06.107Z,71.51
2023-04-06T14:21:42.913Z,71.45
2023-04-06T14:24:11.163Z,71.69
2023-04-06T14:26:49.509Z,71.79
2023-04-06T14:29:16.930Z,71.98
2023-04-06T14:31:44.100Z,71.93
2023-04-06T14:34:13.579Z,72.17
2023-04-06T14:36:44.124Z,72.38
2023-04-06T14:39:11.774Z,72.89
2023-04-06T14:41:51.196Z,72.77
2023-04-06T14:44:39.990Z,72.62
2023-04-06T14:47:10.016Z,72.61
2023-04-06T14:49:40.231Z,72.52
2023-04-06T14:52:08.139Z,72.85
2023-04-06T14:54:35.649Z,72.92
2023-04-06T14:57:23.014Z,72.99
2023-04-06T14:59:51.080Z,73.16
2023-04-06T15:02:22.840Z,73.44
2023-04-06T15:04:54.004Z,73.25
2023-04-06T15:07:32.349Z,73.31
2023-04-06T15:10:00.004Z,73.97
2023-04-06T15:12:27.365Z,73.62
2023-04-06T15:14:57.126Z,73.72
2023-04-06T15:17:26.552Z,73.61
2023-04-06T15:19:54.342Z,73.78
2023-04-06T15:22:41.987Z,73.94
2023-04-06T15:25:10.743Z,74.07
2023-04-06T15:27:38.014Z,73.98
2023-04-06T15:30:26.372Z,73.99
2023-04-06T15:32:58.018Z,73.89
2023-04-06T15:35:27.645Z,73.88
2023-04-06T15:37:55.492Z,74.21
2023-04-06T15:40:26.354Z,74.36
2023-04-06T15:42:54.232Z,74.49
2023-04-06T15:45:31.482Z,74.82
2023-04-06T15:48:08.386Z,75.12
2023-04-06T15:50:39.051Z,75.06
2023-04-06T15:53:07.428Z,74.97
2023-04-06T15:55:35.342Z,74.89
2023-04-06T15:58:04.947Z,75.21
2023-04-06T16:00:38.243Z,75.58
2023-04-06T16:03:26.257Z,75.47
2023-04-06T16:06:08.082Z,75.57
2023-04-06T16:08:36.923Z,75.58
2023-04-06T16:11:07.406Z,75.63
2023-04-06T16:13:52.795Z,75.81
2023-04-06T16:16:36.994Z,76.00
2023-04-06T16:19:08.931Z,76.32
2023-04-06T16:21:57.779Z,76.65
2023-04-06T16:24:30.120Z,76.62
2023-04-06T16:26:59.111Z,76.98
2023-04-06T16:29:27.288Z,77.37
2023-04-06T16:32:04.761Z,77.60
2023-04-06T16:34:44.631Z,77.83
2023-04-06T16:37:12.062Z,78.00
2023-04-06T16:39:41.489Z,78.02
2023-04-06T16:42:21.011Z,78.02
2023-04-06T16:44:48.655Z,78.19
2023-04-06T16:47:25.181Z,78.15
2023-04-06T16:49:53.080Z,78.99
2023-04-06T16:52:20.793Z,79.54
2023-04-06T16:55:10.352Z,78.85
2023-04-06T16:57:40.417Z,78.80
2023-04-06T17:00:10.421Z,78.71
2023-04-06T17:02:51.224Z,78.91
2023-04-06T17:05:24.869Z,78.87
2023-04-06T17:07:52.541Z,78.96
2023-04-06T17:10:28.644Z,79.01
2023-04-06T17:13:01.354Z,78.90
2023-04-06T17:15:29.792Z,79.20
2023-04-06T17:17:58.009Z,79.19
2023-04-06T17:20:25.549Z,79.32
2023-04-06T17:22:52.978Z,79.39
2023-04-06T17:25:20.446Z,79.35
2023-04-06T17:27:48.012Z,79.40
2023-04-06T17:30:18.494Z,79.36
2023-04-06T17:32:46.462Z,79.44
2023-04-06T17:35:15.064Z,79.49
2023-04-06T17:37:44.573Z,79.60
2023-04-06T17:40:13.232Z,79.73
2023-04-06T17:42:40.759Z,79.79
2023-04-06T17:45:09.314Z,79.91
2023-04-06T17:47:36.705Z,80.40
2023-04-06T17:50:04.949Z,80.18
2023-04-06T17:52:32.308Z,80.48
2023-04-06T17:54:59.976Z,80.34
2023-04-06T17:57:27.304Z,80.51
2023-04-06T17:59:57.716Z,80.72
2023-04-06T18:02:25.347Z,80.60
2023-04-06T18:04:55.506Z,80.57
2023-04-06T18:07:22.748Z,80.60
2023-04-06T18:09:50.612Z,80.98
2023-04-06T18:12:30.670Z,80.89
2023-04-06T18:14:57.837Z,81.07
2023-04-06T18:17:27.644Z,81.29
2023-04-06T18:19:55.089Z,81.17
2023-04-06T18:22:22.697Z,81.35
2023-04-06T18:24:52.901Z,81.56
2023-04-06T18:27:23.096Z,81.67
2023-04-06T18:29:50.550Z,81.44
2023-04-06T18:32:18.400Z,81.77
2023-04-06T18:34:46.282Z,81.88
2023-04-06T18:37:13.693Z,81.89
2023-04-06T18:39:41.196Z,82.10
2023-04-06T18:42:20.392Z,82.14
2023-04-06T18:44:49.332Z,82.31
2023-04-06T18:47:26.144Z,82.70
2023-04-06T18:49:53.678Z,82.50
2023-04-06T18:52:21.044Z,82.55
2023-04-06T18:54:48.471Z,83.10
2023-04-06T18:57:19.276Z,83.05
2023-04-06T18:59:55.166Z,83.13
2023-04-06T19:02:25.672Z,82.97
2023-04-06T19:04:59.337Z,82.98
2023-04-06T19:07:29.468Z,83.26
2023-04-06T19:10:17.429Z,83.34
2023-04-06T19:12:54.675Z,83.16
2023-04-06T19:15:22.415Z,83.13
2023-04-06T19:17:49.681Z,83.50
2023-04-06T19:20:20.247Z,83.45
2023-04-06T19:22:50.308Z,83.72
2023-04-06T19:25:18.141Z,83.58
2023-04-06T19:27:49.668Z,83.62
2023-04-06T19:30:17.502Z,83.77
2023-04-06T19:32:56.633Z,83.70
2023-04-06T19:35:33.096Z,84.06
2023-04-06T19:38:00.721Z,83.83
2023-04-06T19:40:28.008Z,83.87
2023-04-06T19:42:55.575Z,84.21
2023-04-06T19:45:23.244Z,84.01
2023-04-06T19:47:54.015Z,84.11
2023-04-06T19:50:21.830Z,84.32
2023-04-06T19:52:53.399Z,84.18
2023-04-06T19:55:21.011Z,84.53
2023-04-06T19:57:48.616Z,84.44
2023-04-06T20:00:27.119Z,84.54
2023-04-06T20:02:54.917Z,84.96
2023-04-06T20:05:22.543Z,85.05
2023-04-06T20:07:50.358Z,84.80
2023-04-06T20:10:20.861Z,84.72
2023-04-06T20:12:48.890Z,85.11
2023-04-06T20:15:25.450Z,84.99
2023-04-06T20:17:52.618Z,85.53
2023-04-06T20:20:20.198Z,85.54
2023-04-06T20:23:07.837Z,85.53
2023-04-06T20:25:35.390Z,85.58
2023-04-06T20:28:05.416Z,85.71
2023-04-06T20:30:43.940Z,85.68
2023-04-06T20:33:20.198Z,85.73
2023-04-06T20:35:56.716Z,85.93
2023-04-06T20:38:32.292Z,85.87
2023-04-06T20:41:03.886Z,86.01
2023-04-06T20:43:35.692Z,85.94
2023-04-06T20:46:03.611Z,85.88
2023-04-06T20:48:41.298Z,85.87
2023-04-06T20:51:18.756Z,85.89
2023-04-06T20:53:46.106Z,86.22
2023-04-06T20:56:16.586Z,85.93
2023-04-06T20:58:52.828Z,85.88
2023-04-06T21:01:23.863Z,86.18
2023-04-06T21:04:11.458Z,86.05
2023-04-06T21:06:42.688Z,86.04
2023-04-06T21:09:20.454Z,86.26
2023-04-06T21:11:47.822Z,86.27
2023-04-06T21:14:15.148Z,86.36
2023-04-06T21:16:42.328Z,86.23
2023-04-06T21:19:09.758Z,86.45
2023-04-06T21:21:37.110Z,86.34
2023-04-06T21:24:07.985Z,86.24
2023-04-06T21:26:36.768Z,86.29
2023-04-06T21:29:17.824Z,86.55
2023-04-06T21:31:45.396Z,86.49
2023-04-06T21:34:13.249Z,86.43
2023-04-06T21:36:41.036Z,86.47
2023-04-06T21:39:08.964Z,86.51
2023-04-06T21:41:36.990Z,86.78
2023-04-06T21:44:11.725Z,86.72
2023-04-06T21:46:40.622Z,86.76
2023-04-06T21:49:28.601Z,86.83
2023-04-06T21:52:07.430Z,86.75
2023-04-06T21:54:40.434Z,86.83
2023-04-06T21:57:27.834Z,86.67
2023-04-06T21:59:55.412Z,86.87
2023-04-06T22:02:23.310Z,86.89
2023-04-06T22:04:55.040Z,86.98
2023-04-06T22:07:42.751Z,87.13
2023-04-06T22:10:13.394Z,87.17
2023-04-06T22:12:52.322Z,87.30
2023-04-06T22:15:19.668Z,87.27
2023-04-06T22:17:46.920Z,87.05
2023-04-06T22:20:17.523Z,87.40
2023-04-06T22:22:44.798Z,87.20
2023-04-06T22:25:25.014Z,87.13
2023-04-06T22:27:54.666Z,87.37
2023-04-06T22:30:22.026Z,87.68
2023-04-06T22:32:52.895Z,87.58
2023-04-06T22:35:20.629Z,87.33
2023-04-06T22:37:47.940Z,87.47
2023-04-06T22:40:17.122Z,88.14
2023-04-06T22:42:44.447Z,87.63
2023-04-06T22:45:13.168Z,87.77
2023-04-06T22:47:49.820Z,87.78
2023-04-06T22:50:18.057Z,87.88
2023-04-06T22:52:45.686Z,87.97
2023-04-06T22:55:13.409Z,88.05
2023-04-06T22:57:50.780Z,88.06
2023-04-06T23:00:20.265Z,87.98
2023-04-06T23:02:47.711Z,88.02
2023-04-06T23:05:15.342Z,88.05
2023-04-06T23:07:47.377Z,87.97
2023-04-06T23:10:15.049Z,88.17
2023-04-06T23:12:42.184Z,88.26
2023-04-06T23:15:11.375Z,88.01
2023-04-06T23:17:38.686Z,88.24
2023-04-06T23:20:10.148Z,88.22
2023-04-06T23:22:37.340Z,88.54
2023-04-06T23:25:04.692Z,88.58
2023-04-06T23:27:32.164Z,88.63
2023-04-06T23:29:59.926Z,88.72
2023-04-06T23:32:27.492Z,88.55
2023-04-06T23:35:02.547Z,88.89
2023-04-06T23:37:30.072Z,88.52
2023-04-06T23:39:57.195Z,88.92
2023-04-06T23:42:28.694Z,89.08
2023-04-06T23:44:56.337Z,88.83
2023-04-06T23:47:42.566Z,88.83
2023-04-06T23:50:11.894Z,89.14
2023-04-06T23:52:50.968Z,89.02
2023-04-06T23:55:18.697Z,89.11
2023-04-06T23:57:48.232Z,89.08
